WMKC/KBR METAR and TAF weather

Enter ICAO airport designator
Station Type Date Time Source
WMKC METAR 2022/01/25 04:00 UTC NOAA

WMKC 250400Z 08005KT 010V180 9999 FEW018 30/24 Q1012


Station Type Date Time Source
WMKC Decoded METAR 2022/01/25 04:00 UTC NOAA

Kota Bharu, Malaysia (WMKC) 06-10N 102-17E 5M
Jan 24, 2022 - 11:00 PM EST / 2022.01.25 0400 UTC
Wind: from the E (080 degrees) at 6 MPH (5 KT) (direction variable):0
Visibility: greater than 7 mile(s):0
Sky conditions: mostly clear
Temperature: 86 F (30 C)
Heat index: 95.0 F (35.0 C):1
Dew Point: 75 F (24 C)
Relative Humidity: 70%
Pressure (altimeter): 29.88 in. Hg (1012 hPa)
ob: WMKC 250400Z 08005KT 010V180 9999 FEW018 30/24 Q1012
cycle: 4

Station Type Date Time Source
WMKC TAF 2022/01/25 06:00 UTC NOAA

TAF WMKC 250500Z 2506/2606 05006KT 9999 FEW018
BECMG 2510/2511 VRB03KT FEW020

Example: see airport list